Polarstern — DBLK — position and weather

sailwx.info

Track history (hours):
 
Tides Pressure Air temp Water temp Dewpoint Dewpoint depression Visibility Wind speed Wind direction Waves Ship positions

Oceanographic research ship Polarstern (Germany)

Detailed information on ship capabilities available from University of Delaware's Ocean Information Center and ARCUS's ALIAS (Arctic Logistics Information and Support) project.

Last reported at 2014-Dec-22 17:00 UTC. Time now 2014-Dec-22 18:31 UTC.
Position S 69°00' E 000°00'.

Length 117.9 m; beam 25 m; draft 10.7 m.

MMSI: 211202460.

Wind from 140 at 4 knots

Barometer 985.1 mb
Air temperature -2.8 ° C
Dewpoint -6.5 ° C
Water temperature -1.8 ° C

Date/timePositionNaut miles runAvg speedWind from/ knotsBaromVisibWave heightAir tempDewpointWater temp
2014-Dec-22 17:00S 69°00' E 000°00'0 0.0 140 / 4985.1 -2.8-6.5-1.8
2014-Dec-22 16:00S 69°00' E 000°00'0 0.0 130 / 4984.8 -3.1-7.1-1.8
2014-Dec-22 15:00S 69°00' E 000°00'0 0.0 120 / 6984.8 5.4 -3.2-7.0-1.8
2014-Dec-22 14:00S 69°00' E 000°00'2 2.2 120 / 6984.6 -3.5-6.4-1.8
2014-Dec-22 13:00S 69°00' E 000°06'0 0.0 130 / 8984.5 -3.6-6.3-1.8
2014-Dec-22 12:00S 69°00' E 000°06'0 0.0 120 / 8984.2 5.4 -3.7-6.2-1.8
2014-Dec-22 11:00S 69°00' E 000°06'0 0.0 120 / 8984.2 -4.1-6.5-1.8
2014-Dec-22 10:00S 69°00' E 000°06'2 2.2 140 / 8984.0 -4.3-6.9-1.8
2014-Dec-22 09:00S 69°00' E 000°00'0 0.0 120 / 8983.610.8 -4.6-7.1-1.8
2014-Dec-22 08:00S 69°00' E 000°00'4 4.3 120 / 6983.2 -4.8-6.8-1.8
2014-Dec-22 07:00S 69°00' W 000°12'0 0.0 090 / 6983.0 -5.3-7.2-1.8
2014-Dec-22 06:00S 69°00' W 000°12'0 0.0 100 / 8982.7 5.4 -5.7-7.6-1.8
2014-Dec-22 05:00S 69°00' W 000°12'0 0.0 100 / 6982.1 -5.7-7.2-1.8
2014-Dec-22 04:00S 69°00' W 000°12'0 0.0 130 / 6982.1 -5.8-7.6-1.8
2014-Dec-22 03:00S 69°00' W 000°12'2 2.2 130 / 6981.9 -5.8-7.5-1.8
2014-Dec-22 02:00S 69°00' W 000°06'0 0.0 120 / 4981.9 -5.7-7.4-1.8
2014-Dec-22 01:00S 69°00' W 000°06'0 0.0 140 / 4982.0 -5.7-7.4-1.8
2014-Dec-22 00:00S 69°00' W 000°06'0 0.0 140 / 6982.1 -5.7-7.1-1.8
2014-Dec-21 23:00S 69°00' W 000°06'0 0.0 130 / 10981.9 -5.5-7.3-1.8
2014-Dec-21 22:00S 69°00' W 000°06'0 0.0 120 / 10981.7 -4.9-6.9-1.8
2014-Dec-21 21:00S 69°00' W 000°06'0 0.0 110 / 10981.9 -4.5-6.9-1.8
2014-Dec-21 20:00S 69°00' W 000°06'0 0.0 090 / 12982.2 -4.5-7.2-1.8
2014-Dec-21 19:00S 69°00' W 000°06'2 2.2 080 / 16982.2 -4.7-7.2-1.8
2014-Dec-21 18:00S 69°00' E 000°00'1212.2 080 / 16981.910.8 -4.4-6.4-1.8
2014-Dec-21 17:00S 68°48' E 000°06'6 6.4 080 / 16981.7 -3.8-6.2-1.8
2014-Dec-21 16:00S 68°42' E 000°12'2 2.2 080 / 16981.7 -4.1-6.3-1.8
2014-Dec-21 15:00S 68°42' E 000°06'6 6.4 080 / 17982.2 5.4 -5.1-6.3-1.8
2014-Dec-21 14:00S 68°36' E 000°00'0 0.0 100 / 16982.5 -5.3-7.3-1.8
2014-Dec-21 13:00S 68°36' E 000°00'6 6.4 080 / 14982.9 -4.8-6.9-1.8
2014-Dec-21 12:00S 68°30' W 000°06'6 6.4 090 / 14983.4 5.4 -4.6-6.9-1.8
2014-Dec-21 11:00S 68°24' E 000°00'0 0.0 080 / 14984.0 -4.7-7.7-1.8
2014-Dec-21 10:00S 68°24' E 000°00'0 0.0 070 / 14984.1 -5.0-7.4-1.8
2014-Dec-21 09:00S 68°24' E 000°00'12 6.0 060 / 16984.610.8 -5.1-7.9-1.8
2014-Dec-21 07:00S 68°12' E 000°00'6 6.0 060 / 14985.5 -4.7-7.2-1.8
2014-Dec-21 06:00S 68°06' E 000°00'6 6.0 060 / 12985.810.8 -4.6-7.3-1.8
2014-Dec-21 05:00S 68°00' E 000°00'0 0.0 070 / 12986.4 -4.8-7.2-1.8
2014-Dec-21 04:00S 68°00' E 000°00'0 0.0 070 / 12987.2 -4.9-7.5-1.8
2014-Dec-21 03:00S 68°00' E 000°00'0 0.0 040 / 10988.0 -5.0-7.3-1.8
2014-Dec-21 02:00S 68°00' E 000°00'0 0.0 060 / 12988.7 -5.3-6.8-1.8
2014-Dec-21 01:00S 68°00' E 000°00'6 6.4 060 / 10989.3 -5.3-6.8-1.8
2014-Dec-21 00:00S 67°54' E 000°06'6 6.4 030 / 10990.1 -5.0-6.4-1.8
2014-Dec-20 23:00S 67°48' E 000°00'0 0.0 050 / 10990.3 -5.6-6.3-1.8
2014-Dec-20 22:00S 67°48' E 000°00'6 6.4 070 / 8990.8 -5.7-6.5-1.8
2014-Dec-20 21:00S 67°42' E 000°06'6 6.0 040 / 8991.5 -5.4-6.2-1.8
2014-Dec-20 20:00S 67°36' E 000°06'0 0.0 040 / 6992.0 -5.7-6.3-1.8
2014-Dec-20 19:00S 67°36' E 000°06'0 0.0 020 / 4992.1 -5.1-5.9-1.8
2014-Dec-20 18:00S 67°36' E 000°06'0 0.0 010 / 4992.3 5.4 -5.2-5.8-1.8
2014-Dec-20 17:00S 67°36' E 000°06'0 0.0 340 / 2992.6 -4.7-5.2-1.8
2014-Dec-20 16:00S 67°36' E 000°06'0 0.0 320 / 2993.0 -4.5-4.9-1.8
2014-Dec-20 15:00S 67°36' E 000°06'0 0.0 300 / 4993.1 5.4 -4.6-4.9-1.8
2014-Dec-20 14:00S 67°36' E 000°06'0 0.0 260 / 4993.1 -4.4-4.5-1.8
2014-Dec-20 13:00S 67°36' E 000°06'0 0.0 240 / 2993.1 -4.7-4.9-1.8
2014-Dec-20 12:00S 67°36' E 000°06'0 0.0 280 / 4992.9 1.1 -5.0-5.3-1.8
2014-Dec-20 11:00S 67°36' E 000°06'0 0.0 280 / 8992.9 -4.7-5.1-1.7
2014-Dec-20 10:00S 67°36' E 000°06'6 3.2 280 / 6992.7 -4.4-4.6-1.7
2014-Dec-20 08:00S 67°30' E 000°00'6 6.0 290 / 10992.6 -6.2-6.6-1.8
2014-Dec-20 07:00S 67°24' E 000°00'12 6.0 280 / 10992.4 -6.2-6.9-1.7
2014-Dec-20 05:00S 67°12' E 000°00'6 6.0 280 / 6992.3 -5.6-6.1-1.8
2014-Dec-20 04:00S 67°06' E 000°00'6 6.0 260 / 6992.2 -5.2-5.5-1.8
2014-Dec-20 03:00S 67°00' E 000°00'0 0.0 250 / 6992.1 -4.9-5.5-1.8
2014-Dec-20 02:00S 67°00' E 000°00'0 0.0 230 / 4992.0 -3.7-6.3-1.8
2014-Dec-20 01:00S 67°00' E 000°00'0 0.0 210 / 6991.8 -3.9-6.6-1.8
2014-Dec-20 00:00S 67°00' E 000°00'0 0.0 200 / 12991.7 -3.6-6.7-1.7
2014-Dec-19 23:00S 67°00' E 000°00'6 6.4 210 / 12991.4 -3.0-5.9-1.8
2014-Dec-19 22:00S 66°54' W 000°06'6 6.0 250 / 12991.2 -2.8-4.3-1.8
2014-Dec-19 21:00S 66°48' W 000°06'6 6.5 240 / 12991.1 -2.7-4.4-1.8
2014-Dec-19 20:00S 66°42' W 000°12'6 6.5 240 / 12991.0 -2.3-4.7-1.7
2014-Dec-19 19:00S 66°36' W 000°06'6 6.5 230 / 12990.7 -2.0-4.4-1.6
2014-Dec-19 18:00S 66°30' E 000°00'0 0.0 230 / 12990.627.0 -1.7-4.3-1.6
2014-Dec-19 17:00S 66°30' E 000°00'0 0.0 230 / 12990.3 -1.7-4.7-1.6
2014-Dec-19 16:00S 66°30' E 000°00'0 0.0 230 / 17990.1 -1.6-5.2-1.6
2014-Dec-19 15:00S 66°30' E 000°00'0 0.0 230 / 17990.027.0 -1.7-5.4-1.6
2014-Dec-19 14:00S 66°30' E 000°00'0 0.0 240 / 17989.9 -1.6-5.6-1.4
2014-Dec-19 13:00S 66°30' E 000°00'0 0.0 250 / 14989.8 -2.0-5.2-1.6
2014-Dec-19 12:00S 66°30' E 000°00'0 0.0 260 / 12989.627.0 -2.6-4.6-1.6
2014-Dec-19 11:00S 66°30' E 000°00'0 0.0 260 / 12989.6 -3.1-4.6-1.5
2014-Dec-19 10:00S 66°30' E 000°00'0 0.0 260 / 10989.4 -2.8-3.8-1.6
2014-Dec-19 09:00S 66°30' E 000°00'0 0.0 250 / 10989.410.8 -3.2-4.3-1.6
2014-Dec-19 08:00S 66°30' E 000°00'0 0.0 260 / 8989.4 -3.7-4.9-1.6
2014-Dec-19 07:00S 66°30' E 000°00'5 4.8 250 / 8989.1 -4.3-4.9-1.6
2014-Dec-19 06:00S 66°30' W 000°12'2 2.4 230 / 8989.110.8 -4.7-5.2-1.7
2014-Dec-19 05:00S 66°30' W 000°06'6 6.5 220 / 8988.8 -5.1-5.6-1.7
2014-Dec-19 04:00S 66°24' E 000°00'6 6.0 190 / 8988.5 -4.9-5.2-1.7
2014-Dec-19 03:00S 66°30' E 000°00'0 0.0 200 / 10988.4 -5.1-5.6-1.7
2014-Dec-19 02:00S 66°30' E 000°00'0 0.0 200 / 10988.2 -5.1-5.5-1.7
2014-Dec-19 01:00S 66°30' E 000°00'6 6.0 200 / 10987.9 -4.6-5.1-1.7
2014-Dec-19 00:00S 66°24' E 000°00'6 6.0 200 / 12987.5 -3.6-4.7-1.7
2014-Dec-18 23:00S 66°18' E 000°00'6 6.5 190 / 12987.6 -2.9-5.3-1.7
2014-Dec-18 22:00S 66°12' E 000°06'6 6.0 180 / 14987.0 -3.0-5.4-1.7
2014-Dec-18 21:00S 66°06' E 000°06'6 6.5 180 / 16986.7 -2.5-4.5-1.6
2014-Dec-18 20:00S 66°00' E 000°00'0 0.0 190 / 16986.4 -2.1-3.8-1.4
2014-Dec-18 19:00S 66°00' E 000°00'0 0.0 190 / 14986.2 -1.8-3.4-1.4
2014-Dec-18 18:00S 66°00' E 000°00'0 0.0 190 / 14986.1 5.4 -1.8-2.4-1.4
2014-Dec-18 17:00S 66°00' E 000°00'6 6.0 190 / 14986.0 -1.3-3.2-1.4
2014-Dec-18 16:00S 66°06' E 000°00'6 6.0 200 / 14985.7 -1.2-3.5-1.4
2014-Dec-18 15:00S 66°00' E 000°00'2 2.4 180 / 12985.410.8 -1.2-3.3-1.4
2014-Dec-18 14:00S 66°00' E 000°06'0 0.0 180 / 10985.4 -1.2-3.0-1.5
2014-Dec-18 13:00S 66°00' E 000°06'0 0.0 170 / 10985.0 -1.4-2.9-1.6
2014-Dec-18 12:00S 66°00' E 000°06'2 2.4 160 / 12984.710.8 -1.6-3.3-1.6
2014-Dec-18 11:00S 66°00' E 000°00'0 0.0 160 / 10984.3 -1.7-3.0-1.6
2014-Dec-18 10:00S 66°00' E 000°00'6 6.0 150 / 12984.1 -1.8-3.0-1.8
2014-Dec-18 09:00S 65°54' E 000°00'8 7.8 140 / 12983.910.8 -1.8-2.8-1.7
2014-Dec-18 08:00S 65°48' W 000°12'1212.0 130 / 14983.0 -2.0-3.2-1.6
2014-Dec-18 07:00S 65°36' W 000°12'6 6.0 140 / 16982.2 -2.0-3.3-1.6
2014-Dec-18 06:00S 65°30' W 000°12'1212.3 140 / 17981.310.8 -2.1-4.1-1.6
2014-Dec-18 05:00S 65°18' W 000°06'1212.3 130 / 16980.6 -2.4-3.8-1.6
2014-Dec-18 04:00S 65°06' E 000°00'6 6.0 120 / 19979.4 -2.4-3.6-1.5
2014-Dec-18 03:00S 65°00' E 000°00'0 0.0 130 / 19978.7 -2.1-3.8-1.3
2014-Dec-18 02:00S 65°00' E 000°00'0 0.0 130 / 21978.3 -1.7-5.2-1.3
2014-Dec-18 01:00S 65°00' E 000°00'0 0.0 120 / 23977.8 -2.0-4.2-1.3
2014-Dec-18 00:00S 65°00' E 000°00'6 6.0 130 / 23977.0 -1.8-3.2-1.2
2014-Dec-17 23:00S 64°54' E 000°00'1212.0 140 / 25975.5 -1.4-3.7-1.3
2014-Dec-17 22:00S 64°42' E 000°00'1212.3 130 / 27974.0 -1.3-3.5-1.0
2014-Dec-17 21:00S 64°30' W 000°06'1212.0 130 / 29972.2 -1.2-2.8-1.0
2014-Dec-17 20:00S 64°18' W 000°06'7 6.5 130 / 33970.1 -1.1-3.0-1.0
2014-Dec-17 19:00S 64°12' E 000°00'6 6.0 140 / 33968.1 -1.1-2.8-0.9
2014-Dec-17 18:00S 64°06' E 000°00'3 2.6 140 / 31967.5 5.4 2.0-0.9-3.5-0.9
2014-Dec-17 17:00S 64°06' W 000°06'0 0.0 150 / 29966.3 -0.9-3.1-1.0
2014-Dec-17 16:00S 64°06' W 000°06'6 6.0 160 / 31965.3 -1.0-3.2-1.1
2014-Dec-17 15:00S 64°00' W 000°06'0 0.0 160 / 29964.8 5.4 2.0-1.1-2.6-1.1
2014-Dec-17 14:00S 64°00' W 000°06'0 0.0 170 / 29964.4 -1.2-2.9-1.1
2014-Dec-17 13:00S 64°00' W 000°06'0 0.0 170 / 31963.6 -1.5-2.7-1.1
2014-Dec-17 12:00S 64°00' W 000°06'3 2.6 180 / 33962.9 5.4 1.5-1.6-3.7-1.2
2014-Dec-17 11:00S 64°00' E 000°00'0 0.0 170 / 31963.0 -1.5-4.9-1.1
2014-Dec-17 10:00S 64°00' E 000°00'0 0.0 160 / 25963.2 -1.6-4.5-1.1
2014-Dec-17 09:00S 64°00' E 000°00'0 0.0 180 / 27962.9 2.2 0.5-1.6-2.2-1.1
2014-Dec-17 08:00S 64°00' E 000°00'3 2.6 190 / 27962.7 -1.6-2.3-1.0
2014-Dec-17 07:00S 64°00' W 000°06'3 2.6 190 / 23962.9 -1.8-2.7-1.2
2014-Dec-17 06:00S 64°00' E 000°00'3 2.6 180 / 25963.0 2.2 -1.9-2.6-1.2
2014-Dec-17 05:00S 64°00' W 000°06'0 0.0 190 / 23962.9 -1.7-2.2-1.4
2014-Dec-17 04:00S 64°00' W 000°06'3 2.6 200 / 25962.6 -2.0-2.6-1.4
2014-Dec-17 03:00S 64°00' E 000°00'0 0.0 210 / 27962.6 -2.1-2.7-1.3
2014-Dec-17 02:00S 64°00' E 000°00'0 0.0 210 / 27963.5 -0.6-0.7-1.2
2014-Dec-17 01:00S 64°00' E 000°00'0 0.0 210 / 29963.5 -1.9-3.1-1.3
2014-Dec-17 00:00S 64°00' E 000°00'3 2.6 210 / 27964.2 -2.0-3.6-1.3
2014-Dec-16 23:00S 64°00' W 000°06'3 2.6 220 / 29965.0 -2.3-3.0-1.5
2014-Dec-16 22:00S 64°00' E 000°00'0 0.0 210 / 27965.7 -2.2-3.1-1.4
2014-Dec-16 21:00S 64°00' E 000°00'0 0.0 220 / 25966.3 -2.4-3.2-1.4
2014-Dec-16 20:00S 64°00' E 000°00'0 0.0 210 / 27966.7 -2.1-4.2-1.4
2014-Dec-16 19:00S 64°00' E 000°00'0 0.0 210 / 25967.0 -1.9-4.2-1.5
2014-Dec-16 18:00S 64°00' E 000°00'0 0.0 210 / 23967.810.8 -2.1-3.9-1.5
2014-Dec-16 17:00S 64°00' E 000°00'60 3.5 210 / 21968.1 -1.2-4.8-1.5
2014-Dec-16 00:00S 63°00' E 000°00'0 0.0 240 / 10971.8 -2.5-3.6-1.4
2014-Dec-15 23:00S 63°00' E 000°00'0 0.0 230 / 12972.2 -2.4-4.1-1.4
2014-Dec-15 22:00S 63°00' E 000°00'1212.0 230 / 10972.2 -2.2-4.1-1.2
2014-Dec-15 21:00S 62°48' E 000°00'6 6.0 250 / 8972.7 -2.3-3.2-1.5
2014-Dec-15 20:00S 62°42' E 000°00'1212.0 220 / 6972.9 -2.3-3.0-1.5
2014-Dec-15 19:00S 62°30' E 000°00'6 6.0 250 / 6973.1 -2.2-2.8-1.4
2014-Dec-15 18:00S 62°24' E 000°00'0 0.0 250 / 6973.4 5.4 -2.0-3.1-1.6
2014-Dec-15 17:00S 62°24' E 000°00'0 0.0 270 / 8973.7 -1.8-3.1-1.6
2014-Dec-15 16:00S 62°24' E 000°00'0 0.0 270 / 8974.1 -1.8-3.1-1.5
2014-Dec-15 15:00S 62°24' E 000°00'6 6.0 260 / 10974.4 5.4 -1.8-3.4-1.4
2014-Dec-15 14:00S 62°18' E 000°00'0 0.0 250 / 8974.7 -1.8-3.0-1.3
2014-Dec-15 13:00S 62°18' E 000°00'1212.0 250 / 6974.8 -2.1-3.0-1.7
2014-Dec-15 12:00S 62°06' E 000°00'6 6.0 280 / 12974.7 2.2 -2.0-2.7-1.7
2014-Dec-15 11:00S 62°00' E 000°00'0 0.0 270 / 8975.5 -2.3-2.8-1.7
2014-Dec-15 10:00S 62°00' E 000°00'0 0.0 250 / 10975.8 -2.5-3.1-1.8
2014-Dec-15 09:00S 62°00' E 000°00'0 0.0 250 / 8976.2 2.2 -2.6-3.1-1.7
2014-Dec-15 08:00S 62°00' E 000°00'0 0.0 240 / 8976.4 -2.6-3.0-1.7
2014-Dec-15 07:00S 62°00' E 000°00'0 0.0 230 / 6976.4 -2.6-3.0-1.7
2014-Dec-15 06:00S 62°00' E 000°00'0 0.0 200 / 4976.5 0.5 -2.6-2.9-1.7
2014-Dec-15 05:00S 62°00' E 000°00'6 6.0 170 / 6976.7 -2.6-2.7-1.8
2014-Dec-15 04:00S 61°54' E 000°00'1212.0 230 / 4977.0 -2.6-2.9-1.7
2014-Dec-15 03:00S 61°42' E 000°00'6 6.0 190 / 4977.6 -2.9-3.2-1.7
2014-Dec-15 02:00S 61°36' E 000°00'6 6.0 070 / 2978.1 -2.7-3.0-1.7
2014-Dec-15 01:00S 61°30' E 000°00'1212.0 070 / 4979.0 -2.3-2.6-1.7
2014-Dec-15 00:00S 61°18' E 000°00'6 6.0 070 / 4979.6 -2.1-2.9-1.7
2014-Dec-14 23:00S 61°12' E 000°00'6 6.0 040 / 6980.9 -1.9-2.9-1.7
2014-Dec-14 22:00S 61°06' E 000°00'6 6.0 030 / 6982.1 -1.7-3.2-1.8
2014-Dec-14 21:00S 61°00' E 000°00'0 0.0 020 / 4982.7 -1.6-3.4-1.6
2014-Dec-14 20:00S 61°00' E 000°00'0 0.0 330 / 6983.5 -1.5-3.2-1.6
2014-Dec-14 19:00S 61°00' E 000°00'0 0.0 320 / 10984.5 -1.3-3.2-1.6
2014-Dec-14 18:00S 61°00' E 000°00'0 0.0 300 / 10985.2 5.4 -1.2-3.1-1.6
2014-Dec-14 17:00S 61°00' E 000°00'0 0.0 290 / 10985.8 -1.2-3.5-1.6
2014-Dec-14 16:00S 61°00' E 000°00'0 0.0 290 / 14986.3 -1.0-3.5-1.6
2014-Dec-14 15:00S 61°00' E 000°00'6 6.0 280 / 14986.6 5.4 -1.1-2.9-1.6
2014-Dec-14 14:00S 60°54' E 000°00'6 6.0 280 / 14986.9 -0.8-2.4-1.7
2014-Dec-14 13:00S 60°48' E 000°00'1212.0 270 / 16987.3 -0.9-1.9-1.5
2014-Dec-14 12:00S 60°36' E 000°00'7 6.7 290 / 16987.5 -1.1-1.2-1.6
2014-Dec-14 11:00S 60°30' E 000°06'7 6.7 330 / 14987.3 -1.2-1.3-1.5
2014-Dec-14 10:00S 60°24' E 000°12'3 3.0 340 / 17988.2 -0.8-1.1-1.4
2014-Dec-14 09:00S 60°24' E 000°06'0 0.0 350 / 19988.4 2.2 -1.7-2.1-1.3
2014-Dec-14 08:00S 60°24' E 000°06'1212.0 360 / 21989.3 -2.1-2.4-1.3
2014-Dec-14 07:00S 60°12' E 000°06'7 6.7 360 / 19990.5 -1.9-2.5-1.4
2014-Dec-14 06:00S 60°06' E 000°00'6 6.0 360 / 17990.9 5.4 -2.3-2.6-1.5
2014-Dec-14 05:00S 60°00' E 000°00'0 0.0 350 / 16991.7 -2.7-3.7-1.6
2014-Dec-14 04:00S 60°00' E 000°00'0 0.0 340 / 16992.7 -2.4-4.7-1.6
2014-Dec-14 03:00S 60°00' E 000°00'0 0.0 330 / 14993.6 -2.6-4.6-1.6
2014-Dec-14 02:00S 60°00' E 000°00'0 0.0 330 / 12994.5 -2.9-5.5-1.4
2014-Dec-14 01:00S 60°00' E 000°00'1212.0 320 / 12995.0 -3.2-6.6-1.6
2014-Dec-14 00:00S 59°48' E 000°00'108 4.5 300 / 10995.6 -3.3-6.8-1.5
2014-Dec-13 00:00S 58°00' E 000°00'0 0.0 110 / 17987.6 -2.3-6.7-1.0
2014-Dec-12 23:00S 58°00' E 000°00'0 0.0 100 / 19987.9 -2.4-7.3-0.9
2014-Dec-12 22:00S 58°00' E 000°00'6 6.0 100 / 19987.9 -2.2-6.9-0.9
2014-Dec-12 21:00S 57°54' E 000°00'7 6.8 090 / 21987.9 -2.1-6.8-0.8
2014-Dec-12 20:00S 57°48' E 000°06'1212.4 080 / 21987.5 -1.6-5.6-0.9
2014-Dec-12 19:00S 57°36' E 000°12'1212.4 080 / 21987.5 -1.6-5.9-0.9
2014-Dec-12 18:00S 57°24' E 000°18'3 3.2 070 / 21987.710.8 1.5-1.4-5.5-1.0
2014-Dec-12 17:00S 57°24' E 000°12'   060 / 21988.4 -1.5-5.9-0.9
Track history (hours):
 
Tides Pressure Air temp Water temp Dewpoint Dewpoint depression Visibility Wind speed Wind direction Waves Ship positions

Oceanographic research ship Polarstern (Germany)

Detailed information on ship capabilities available from University of Delaware's Ocean Information Center and ARCUS's ALIAS (Arctic Logistics Information and Support) project.

Last reported at 2014-Dec-22 17:00 UTC. Time now 2014-Dec-22 18:31 UTC.
Position S 69°00' E 000°00'.

Length 117.9 m; beam 25 m; draft 10.7 m.

MMSI: 211202460.

Wind from 140 at 4 knots

Barometer 985.1 mb
Air temperature -2.8 ° C
Dewpoint -6.5 ° C
Water temperature -1.8 ° C

Date/timePositionNaut miles runAvg speedWind from/ knotsBaromVisibWave heightAir tempDewpointWater temp
2014-Dec-22 17:00S 69°00' E 000°00'0 0.0 140 / 4985.1 -2.8-6.5-1.8
2014-Dec-22 16:00S 69°00' E 000°00'0 0.0 130 / 4984.8 -3.1-7.1-1.8
2014-Dec-22 15:00S 69°00' E 000°00'0 0.0 120 / 6984.8 5.4 -3.2-7.0-1.8
2014-Dec-22 14:00S 69°00' E 000°00'2 2.2 120 / 6984.6 -3.5-6.4-1.8
2014-Dec-22 13:00S 69°00' E 000°06'0 0.0 130 / 8984.5 -3.6-6.3-1.8
2014-Dec-22 12:00S 69°00' E 000°06'0 0.0 120 / 8984.2 5.4 -3.7-6.2-1.8
2014-Dec-22 11:00S 69°00' E 000°06'0 0.0 120 / 8984.2 -4.1-6.5-1.8
2014-Dec-22 10:00S 69°00' E 000°06'2 2.2 140 / 8984.0 -4.3-6.9-1.8
2014-Dec-22 09:00S 69°00' E 000°00'0 0.0 120 / 8983.610.8 -4.6-7.1-1.8
2014-Dec-22 08:00S 69°00' E 000°00'4 4.3 120 / 6983.2 -4.8-6.8-1.8
2014-Dec-22 07:00S 69°00' W 000°12'0 0.0 090 / 6983.0 -5.3-7.2-1.8
2014-Dec-22 06:00S 69°00' W 000°12'0 0.0 100 / 8982.7 5.4 -5.7-7.6-1.8
2014-Dec-22 05:00S 69°00' W 000°12'0 0.0 100 / 6982.1 -5.7-7.2-1.8
2014-Dec-22 04:00S 69°00' W 000°12'0 0.0 130 / 6982.1 -5.8-7.6-1.8
2014-Dec-22 03:00S 69°00' W 000°12'2 2.2 130 / 6981.9 -5.8-7.5-1.8
2014-Dec-22 02:00S 69°00' W 000°06'0 0.0 120 / 4981.9 -5.7-7.4-1.8
2014-Dec-22 01:00S 69°00' W 000°06'0 0.0 140 / 4982.0 -5.7-7.4-1.8
2014-Dec-22 00:00S 69°00' W 000°06'0 0.0 140 / 6982.1 -5.7-7.1-1.8
2014-Dec-21 23:00S 69°00' W 000°06'0 0.0 130 / 10981.9 -5.5-7.3-1.8
2014-Dec-21 22:00S 69°00' W 000°06'0 0.0 120 / 10981.7 -4.9-6.9-1.8
2014-Dec-21 21:00S 69°00' W 000°06'0 0.0 110 / 10981.9 -4.5-6.9-1.8
2014-Dec-21 20:00S 69°00' W 000°06'0 0.0 090 / 12982.2 -4.5-7.2-1.8
2014-Dec-21 19:00S 69°00' W 000°06'2 2.2 080 / 16982.2 -4.7-7.2-1.8
2014-Dec-21 18:00S 69°00' E 000°00'1212.2 080 / 16981.910.8 -4.4-6.4-1.8
2014-Dec-21 17:00S 68°48' E 000°06'6 6.4 080 / 16981.7 -3.8-6.2-1.8
2014-Dec-21 16:00S 68°42' E 000°12'2 2.2 080 / 16981.7 -4.1-6.3-1.8
2014-Dec-21 15:00S 68°42' E 000°06'6 6.4 080 / 17982.2 5.4 -5.1-6.3-1.8
2014-Dec-21 14:00S 68°36' E 000°00'0 0.0 100 / 16982.5 -5.3-7.3-1.8
2014-Dec-21 13:00S 68°36' E 000°00'6 6.4 080 / 14982.9 -4.8-6.9-1.8
2014-Dec-21 12:00S 68°30' W 000°06'6 6.4 090 / 14983.4 5.4 -4.6-6.9-1.8
2014-Dec-21 11:00S 68°24' E 000°00'0 0.0 080 / 14984.0 -4.7-7.7-1.8
2014-Dec-21 10:00S 68°24' E 000°00'0 0.0 070 / 14984.1 -5.0-7.4-1.8
2014-Dec-21 09:00S 68°24' E 000°00'12 6.0 060 / 16984.610.8 -5.1-7.9-1.8
2014-Dec-21 07:00S 68°12' E 000°00'6 6.0 060 / 14985.5 -4.7-7.2-1.8
2014-Dec-21 06:00S 68°06' E 000°00'6 6.0 060 / 12985.810.8 -4.6-7.3-1.8
2014-Dec-21 05:00S 68°00' E 000°00'0 0.0 070 / 12986.4 -4.8-7.2-1.8
2014-Dec-21 04:00S 68°00' E 000°00'0 0.0 070 / 12987.2 -4.9-7.5-1.8
2014-Dec-21 03:00S 68°00' E 000°00'0 0.0 040 / 10988.0 -5.0-7.3-1.8
2014-Dec-21 02:00S 68°00' E 000°00'0 0.0 060 / 12988.7 -5.3-6.8-1.8
2014-Dec-21 01:00S 68°00' E 000°00'6 6.4 060 / 10989.3 -5.3-6.8-1.8
2014-Dec-21 00:00S 67°54' E 000°06'6 6.4 030 / 10990.1 -5.0-6.4-1.8
2014-Dec-20 23:00S 67°48' E 000°00'0 0.0 050 / 10990.3 -5.6-6.3-1.8
2014-Dec-20 22:00S 67°48' E 000°00'6 6.4 070 / 8990.8 -5.7-6.5-1.8
2014-Dec-20 21:00S 67°42' E 000°06'6 6.0 040 / 8991.5 -5.4-6.2-1.8
2014-Dec-20 20:00S 67°36' E 000°06'0 0.0 040 / 6992.0 -5.7-6.3-1.8
2014-Dec-20 19:00S 67°36' E 000°06'0 0.0 020 / 4992.1 -5.1-5.9-1.8
2014-Dec-20 18:00S 67°36' E 000°06'0 0.0 010 / 4992.3 5.4 -5.2-5.8-1.8
2014-Dec-20 17:00S 67°36' E 000°06'0 0.0 340 / 2992.6 -4.7-5.2-1.8
2014-Dec-20 16:00S 67°36' E 000°06'0 0.0 320 / 2993.0 -4.5-4.9-1.8
2014-Dec-20 15:00S 67°36' E 000°06'0 0.0 300 / 4993.1 5.4 -4.6-4.9-1.8
2014-Dec-20 14:00S 67°36' E 000°06'0 0.0 260 / 4993.1 -4.4-4.5-1.8
2014-Dec-20 13:00S 67°36' E 000°06'0 0.0 240 / 2993.1 -4.7-4.9-1.8
2014-Dec-20 12:00S 67°36' E 000°06'0 0.0 280 / 4992.9 1.1 -5.0-5.3-1.8
2014-Dec-20 11:00S 67°36' E 000°06'0 0.0 280 / 8992.9 -4.7-5.1-1.7
2014-Dec-20 10:00S 67°36' E 000°06'6 3.2 280 / 6992.7 -4.4-4.6-1.7
2014-Dec-20 08:00S 67°30' E 000°00'6 6.0 290 / 10992.6 -6.2-6.6-1.8
2014-Dec-20 07:00S 67°24' E 000°00'12 6.0 280 / 10992.4 -6.2-6.9-1.7
2014-Dec-20 05:00S 67°12' E 000°00'6 6.0 280 / 6992.3 -5.6-6.1-1.8
2014-Dec-20 04:00S 67°06' E 000°00'6 6.0 260 / 6992.2 -5.2-5.5-1.8
2014-Dec-20 03:00S 67°00' E 000°00'0 0.0 250 / 6992.1 -4.9-5.5-1.8
2014-Dec-20 02:00S 67°00' E 000°00'0 0.0 230 / 4992.0 -3.7-6.3-1.8
2014-Dec-20 01:00S 67°00' E 000°00'0 0.0 210 / 6991.8 -3.9-6.6-1.8
2014-Dec-20 00:00S 67°00' E 000°00'0 0.0 200 / 12991.7 -3.6-6.7-1.7
2014-Dec-19 23:00S 67°00' E 000°00'6 6.4 210 / 12991.4 -3.0-5.9-1.8
2014-Dec-19 22:00S 66°54' W 000°06'6 6.0 250 / 12991.2 -2.8-4.3-1.8
2014-Dec-19 21:00S 66°48' W 000°06'6 6.5 240 / 12991.1 -2.7-4.4-1.8
2014-Dec-19 20:00S 66°42' W 000°12'6 6.5 240 / 12991.0 -2.3-4.7-1.7
2014-Dec-19 19:00S 66°36' W 000°06'6 6.5 230 / 12990.7 -2.0-4.4-1.6
2014-Dec-19 18:00S 66°30' E 000°00'0 0.0 230 / 12990.627.0 -1.7-4.3-1.6
2014-Dec-19 17:00S 66°30' E 000°00'0 0.0 230 / 12990.3 -1.7-4.7-1.6
2014-Dec-19 16:00S 66°30' E 000°00'0 0.0 230 / 17990.1 -1.6-5.2-1.6
2014-Dec-19 15:00S 66°30' E 000°00'0 0.0 230 / 17990.027.0 -1.7-5.4-1.6
2014-Dec-19 14:00S 66°30' E 000°00'0 0.0 240 / 17989.9 -1.6-5.6-1.4
2014-Dec-19 13:00S 66°30' E 000°00'0 0.0 250 / 14989.8 -2.0-5.2-1.6
2014-Dec-19 12:00S 66°30' E 000°00'0 0.0 260 / 12989.627.0 -2.6-4.6-1.6
2014-Dec-19 11:00S 66°30' E 000°00'0 0.0 260 / 12989.6 -3.1-4.6-1.5
2014-Dec-19 10:00S 66°30' E 000°00'0 0.0 260 / 10989.4 -2.8-3.8-1.6
2014-Dec-19 09:00S 66°30' E 000°00'0 0.0 250 / 10989.410.8 -3.2-4.3-1.6
2014-Dec-19 08:00S 66°30' E 000°00'0 0.0 260 / 8989.4 -3.7-4.9-1.6
2014-Dec-19 07:00S 66°30' E 000°00'5 4.8 250 / 8989.1 -4.3-4.9-1.6
2014-Dec-19 06:00S 66°30' W 000°12'2 2.4 230 / 8989.110.8 -4.7-5.2-1.7
2014-Dec-19 05:00S 66°30' W 000°06'6 6.5 220 / 8988.8 -5.1-5.6-1.7
2014-Dec-19 04:00S 66°24' E 000°00'6 6.0 190 / 8988.5 -4.9-5.2-1.7
2014-Dec-19 03:00S 66°30' E 000°00'0 0.0 200 / 10988.4 -5.1-5.6-1.7
2014-Dec-19 02:00S 66°30' E 000°00'0 0.0 200 / 10988.2 -5.1-5.5-1.7
2014-Dec-19 01:00S 66°30' E 000°00'6 6.0 200 / 10987.9 -4.6-5.1-1.7
2014-Dec-19 00:00S 66°24' E 000°00'6 6.0 200 / 12987.5 -3.6-4.7-1.7
2014-Dec-18 23:00S 66°18' E 000°00'6 6.5 190 / 12987.6 -2.9-5.3-1.7
2014-Dec-18 22:00S 66°12' E 000°06'6 6.0 180 / 14987.0 -3.0-5.4-1.7
2014-Dec-18 21:00S 66°06' E 000°06'6 6.5 180 / 16986.7 -2.5-4.5-1.6
2014-Dec-18 20:00S 66°00' E 000°00'0 0.0 190 / 16986.4 -2.1-3.8-1.4
2014-Dec-18 19:00S 66°00' E 000°00'0 0.0 190 / 14986.2 -1.8-3.4-1.4
2014-Dec-18 18:00S 66°00' E 000°00'0 0.0 190 / 14986.1 5.4 -1.8-2.4-1.4
2014-Dec-18 17:00S 66°00' E 000°00'6 6.0 190 / 14986.0 -1.3-3.2-1.4
2014-Dec-18 16:00S 66°06' E 000°00'6 6.0 200 / 14985.7 -1.2-3.5-1.4
2014-Dec-18 15:00S 66°00' E 000°00'2 2.4 180 / 12985.410.8 -1.2-3.3-1.4
2014-Dec-18 14:00S 66°00' E 000°06'0 0.0 180 / 10985.4 -1.2-3.0-1.5
2014-Dec-18 13:00S 66°00' E 000°06'0 0.0 170 / 10985.0 -1.4-2.9-1.6
2014-Dec-18 12:00S 66°00' E 000°06'2 2.4 160 / 12984.710.8 -1.6-3.3-1.6
2014-Dec-18 11:00S 66°00' E 000°00'0 0.0 160 / 10984.3 -1.7-3.0-1.6
2014-Dec-18 10:00S 66°00' E 000°00'6 6.0 150 / 12984.1 -1.8-3.0-1.8
2014-Dec-18 09:00S 65°54' E 000°00'8 7.8 140 / 12983.910.8 -1.8-2.8-1.7
2014-Dec-18 08:00S 65°48' W 000°12'1212.0 130 / 14983.0 -2.0-3.2-1.6
2014-Dec-18 07:00S 65°36' W 000°12'6 6.0 140 / 16982.2 -2.0-3.3-1.6
2014-Dec-18 06:00S 65°30' W 000°12'1212.3 140 / 17981.310.8 -2.1-4.1-1.6
2014-Dec-18 05:00S 65°18' W 000°06'1212.3 130 / 16980.6 -2.4-3.8-1.6
2014-Dec-18 04:00S 65°06' E 000°00'6 6.0 120 / 19979.4 -2.4-3.6-1.5
2014-Dec-18 03:00S 65°00' E 000°00'0 0.0 130 / 19978.7 -2.1-3.8-1.3
2014-Dec-18 02:00S 65°00' E 000°00'0 0.0 130 / 21978.3 -1.7-5.2-1.3
2014-Dec-18 01:00S 65°00' E 000°00'0 0.0 120 / 23977.8 -2.0-4.2-1.3
2014-Dec-18 00:00S 65°00' E 000°00'6 6.0 130 / 23977.0 -1.8-3.2-1.2
2014-Dec-17 23:00S 64°54' E 000°00'1212.0 140 / 25975.5 -1.4-3.7-1.3
2014-Dec-17 22:00S 64°42' E 000°00'1212.3 130 / 27974.0 -1.3-3.5-1.0
2014-Dec-17 21:00S 64°30' W 000°06'1212.0 130 / 29972.2 -1.2-2.8-1.0
2014-Dec-17 20:00S 64°18' W 000°06'7 6.5 130 / 33970.1 -1.1-3.0-1.0
2014-Dec-17 19:00S 64°12' E 000°00'6 6.0 140 / 33968.1 -1.1-2.8-0.9
2014-Dec-17 18:00S 64°06' E 000°00'3 2.6 140 / 31967.5 5.4 2.0-0.9-3.5-0.9
2014-Dec-17 17:00S 64°06' W 000°06'0 0.0 150 / 29966.3 -0.9-3.1-1.0
2014-Dec-17 16:00S 64°06' W 000°06'6 6.0 160 / 31965.3 -1.0-3.2-1.1
2014-Dec-17 15:00S 64°00' W 000°06'0 0.0 160 / 29964.8 5.4 2.0-1.1-2.6-1.1
2014-Dec-17 14:00S 64°00' W 000°06'0 0.0 170 / 29964.4 -1.2-2.9-1.1
2014-Dec-17 13:00S 64°00' W 000°06'0 0.0 170 / 31963.6 -1.5-2.7-1.1
2014-Dec-17 12:00S 64°00' W 000°06'3 2.6 180 / 33962.9 5.4 1.5-1.6-3.7-1.2
2014-Dec-17 11:00S 64°00' E 000°00'0 0.0 170 / 31963.0 -1.5-4.9-1.1
2014-Dec-17 10:00S 64°00' E 000°00'0 0.0 160 / 25963.2 -1.6-4.5-1.1
2014-Dec-17 09:00S 64°00' E 000°00'0 0.0 180 / 27962.9 2.2 0.5-1.6-2.2-1.1
2014-Dec-17 08:00S 64°00' E 000°00'3 2.6 190 / 27962.7 -1.6-2.3-1.0
2014-Dec-17 07:00S 64°00' W 000°06'3 2.6 190 / 23962.9 -1.8-2.7-1.2
2014-Dec-17 06:00S 64°00' E 000°00'3 2.6 180 / 25963.0 2.2 -1.9-2.6-1.2
2014-Dec-17 05:00S 64°00' W 000°06'0 0.0 190 / 23962.9 -1.7-2.2-1.4
2014-Dec-17 04:00S 64°00' W 000°06'3 2.6 200 / 25962.6 -2.0-2.6-1.4
2014-Dec-17 03:00S 64°00' E 000°00'0 0.0 210 / 27962.6 -2.1-2.7-1.3
2014-Dec-17 02:00S 64°00' E 000°00'0 0.0 210 / 27963.5 -0.6-0.7-1.2
2014-Dec-17 01:00S 64°00' E 000°00'0 0.0 210 / 29963.5 -1.9-3.1-1.3
2014-Dec-17 00:00S 64°00' E 000°00'3 2.6 210 / 27964.2 -2.0-3.6-1.3
2014-Dec-16 23:00S 64°00' W 000°06'3 2.6 220 / 29965.0 -2.3-3.0-1.5
2014-Dec-16 22:00S 64°00' E 000°00'0 0.0 210 / 27965.7 -2.2-3.1-1.4
2014-Dec-16 21:00S 64°00' E 000°00'0 0.0 220 / 25966.3 -2.4-3.2-1.4
2014-Dec-16 20:00S 64°00' E 000°00'0 0.0 210 / 27966.7 -2.1-4.2-1.4
2014-Dec-16 19:00S 64°00' E 000°00'0 0.0 210 / 25967.0 -1.9-4.2-1.5
2014-Dec-16 18:00S 64°00' E 000°00'0 0.0 210 / 23967.810.8 -2.1-3.9-1.5
2014-Dec-16 17:00S 64°00' E 000°00'60 3.5 210 / 21968.1 -1.2-4.8-1.5
2014-Dec-16 00:00S 63°00' E 000°00'0 0.0 240 / 10971.8 -2.5-3.6-1.4
2014-Dec-15 23:00S 63°00' E 000°00'0 0.0 230 / 12972.2 -2.4-4.1-1.4
2014-Dec-15 22:00S 63°00' E 000°00'1212.0 230 / 10972.2 -2.2-4.1-1.2
2014-Dec-15 21:00S 62°48' E 000°00'6 6.0 250 / 8972.7 -2.3-3.2-1.5
2014-Dec-15 20:00S 62°42' E 000°00'1212.0 220 / 6972.9 -2.3-3.0-1.5
2014-Dec-15 19:00S 62°30' E 000°00'6 6.0 250 / 6973.1 -2.2-2.8-1.4
2014-Dec-15 18:00S 62°24' E 000°00'0 0.0 250 / 6973.4 5.4 -2.0-3.1-1.6
2014-Dec-15 17:00S 62°24' E 000°00'0 0.0 270 / 8973.7 -1.8-3.1-1.6
2014-Dec-15 16:00S 62°24' E 000°00'0 0.0 270 / 8974.1 -1.8-3.1-1.5
2014-Dec-15 15:00S 62°24' E 000°00'6 6.0 260 / 10974.4 5.4 -1.8-3.4-1.4
2014-Dec-15 14:00S 62°18' E 000°00'0 0.0 250 / 8974.7 -1.8-3.0-1.3
2014-Dec-15 13:00S 62°18' E 000°00'1212.0 250 / 6974.8 -2.1-3.0-1.7
2014-Dec-15 12:00S 62°06' E 000°00'6 6.0 280 / 12974.7 2.2 -2.0-2.7-1.7
2014-Dec-15 11:00S 62°00' E 000°00'0 0.0 270 / 8975.5 -2.3-2.8-1.7
2014-Dec-15 10:00S 62°00' E 000°00'0 0.0 250 / 10975.8 -2.5-3.1-1.8
2014-Dec-15 09:00S 62°00' E 000°00'0 0.0 250 / 8976.2 2.2 -2.6-3.1-1.7
2014-Dec-15 08:00S 62°00' E 000°00'0 0.0 240 / 8976.4 -2.6-3.0-1.7
2014-Dec-15 07:00S 62°00' E 000°00'0 0.0 230 / 6976.4 -2.6-3.0-1.7
2014-Dec-15 06:00S 62°00' E 000°00'0 0.0 200 / 4976.5 0.5 -2.6-2.9-1.7
2014-Dec-15 05:00S 62°00' E 000°00'6 6.0 170 / 6976.7 -2.6-2.7-1.8
2014-Dec-15 04:00S 61°54' E 000°00'1212.0 230 / 4977.0 -2.6-2.9-1.7
2014-Dec-15 03:00S 61°42' E 000°00'6 6.0 190 / 4977.6 -2.9-3.2-1.7
2014-Dec-15 02:00S 61°36' E 000°00'6 6.0 070 / 2978.1 -2.7-3.0-1.7
2014-Dec-15 01:00S 61°30' E 000°00'1212.0 070 / 4979.0 -2.3-2.6-1.7
2014-Dec-15 00:00S 61°18' E 000°00'6 6.0 070 / 4979.6 -2.1-2.9-1.7
2014-Dec-14 23:00S 61°12' E 000°00'6 6.0 040 / 6980.9 -1.9-2.9-1.7
2014-Dec-14 22:00S 61°06' E 000°00'6 6.0 030 / 6982.1 -1.7-3.2-1.8
2014-Dec-14 21:00S 61°00' E 000°00'0 0.0 020 / 4982.7 -1.6-3.4-1.6
2014-Dec-14 20:00S 61°00' E 000°00'0 0.0 330 / 6983.5 -1.5-3.2-1.6
2014-Dec-14 19:00S 61°00' E 000°00'0 0.0 320 / 10984.5 -1.3-3.2-1.6
2014-Dec-14 18:00S 61°00' E 000°00'0 0.0 300 / 10985.2 5.4 -1.2-3.1-1.6
2014-Dec-14 17:00S 61°00' E 000°00'0 0.0 290 / 10985.8 -1.2-3.5-1.6
2014-Dec-14 16:00S 61°00' E 000°00'0 0.0 290 / 14986.3 -1.0-3.5-1.6
2014-Dec-14 15:00S 61°00' E 000°00'6 6.0 280 / 14986.6 5.4 -1.1-2.9-1.6
2014-Dec-14 14:00S 60°54' E 000°00'6 6.0 280 / 14986.9 -0.8-2.4-1.7
2014-Dec-14 13:00S 60°48' E 000°00'1212.0 270 / 16987.3 -0.9-1.9-1.5
2014-Dec-14 12:00S 60°36' E 000°00'7 6.7 290 / 16987.5 -1.1-1.2-1.6
2014-Dec-14 11:00S 60°30' E 000°06'7 6.7 330 / 14987.3 -1.2-1.3-1.5
2014-Dec-14 10:00S 60°24' E 000°12'3 3.0 340 / 17988.2 -0.8-1.1-1.4
2014-Dec-14 09:00S 60°24' E 000°06'0 0.0 350 / 19988.4 2.2 -1.7-2.1-1.3
2014-Dec-14 08:00S 60°24' E 000°06'1212.0 360 / 21989.3 -2.1-2.4-1.3
2014-Dec-14 07:00S 60°12' E 000°06'7 6.7 360 / 19990.5 -1.9-2.5-1.4
2014-Dec-14 06:00S 60°06' E 000°00'6 6.0 360 / 17990.9 5.4 -2.3-2.6-1.5
2014-Dec-14 05:00S 60°00' E 000°00'0 0.0 350 / 16991.7 -2.7-3.7-1.6
2014-Dec-14 04:00S 60°00' E 000°00'0 0.0 340 / 16992.7 -2.4-4.7-1.6
2014-Dec-14 03:00S 60°00' E 000°00'0 0.0 330 / 14993.6 -2.6-4.6-1.6
2014-Dec-14 02:00S 60°00' E 000°00'0 0.0 330 / 12994.5 -2.9-5.5-1.4
2014-Dec-14 01:00S 60°00' E 000°00'1212.0 320 / 12995.0 -3.2-6.6-1.6
2014-Dec-14 00:00S 59°48' E 000°00'108 4.5 300 / 10995.6 -3.3-6.8-1.5
2014-Dec-13 00:00S 58°00' E 000°00'0 0.0 110 / 17987.6 -2.3-6.7-1.0
2014-Dec-12 23:00S 58°00' E 000°00'0 0.0 100 / 19987.9 -2.4-7.3-0.9
2014-Dec-12 22:00S 58°00' E 000°00'6 6.0 100 / 19987.9 -2.2-6.9-0.9
2014-Dec-12 21:00S 57°54' E 000°00'7 6.8 090 / 21987.9 -2.1-6.8-0.8
2014-Dec-12 20:00S 57°48' E 000°06'1212.4 080 / 21987.5 -1.6-5.6-0.9
2014-Dec-12 19:00S 57°36' E 000°12'1212.4 080 / 21987.5 -1.6-5.9-0.9
2014-Dec-12 18:00S 57°24' E 000°18'3 3.2 070 / 21987.710.8 1.5-1.4-5.5-1.0
2014-Dec-12 17:00S 57°24' E 000°12'   060 / 21988.4 -1.5-5.9-0.9

Dump ship's entire track history